sensor_id;sensor_type;location;lat;lon;timestamp;P1;durP1;ratioP1;P2;durP2;ratioP2
10005;SDS011;5042;42.626;23.382;2023-04-15T00:01:39;5.57;;;2.00;;
10005;SDS011;5042;42.626;23.382;2023-04-15T00:04:06;2.50;;;1.80;;
10005;SDS011;5042;42.626;23.382;2023-04-15T00:06:35;3.50;;;1.83;;
10005;SDS011;5042;42.626;23.382;2023-04-15T00:09:03;2.00;;;1.53;;
10005;SDS011;5042;42.626;23.382;2023-04-15T00:11:31;2.93;;;1.70;;
10005;SDS011;5042;42.626;23.382;2023-04-15T00:13:58;2.87;;;1.90;;
10005;SDS011;5042;42.626;23.382;2023-04-15T00:16:25;2.03;;;1.60;;
10005;SDS011;5042;42.626;23.382;2023-04-15T00:18:52;2.33;;;1.67;;
10005;SDS011;5042;42.626;23.382;2023-04-15T00:21:19;2.30;;;1.63;;
10005;SDS011;5042;42.626;23.382;2023-04-15T00:23:45;5.77;;;2.10;;
10005;SDS011;5042;42.626;23.382;2023-04-15T00:26:16;2.47;;;2.00;;
10005;SDS011;5042;42.626;23.382;2023-04-15T00:28:45;5.50;;;3.00;;
10005;SDS011;5042;42.626;23.382;2023-04-15T00:31:11;4.80;;;2.77;;
10005;SDS011;5042;42.626;23.382;2023-04-15T00:33:39;4.30;;;3.23;;
10005;SDS011;5042;42.626;23.382;2023-04-15T00:36:06;3.53;;;3.03;;
10005;SDS011;5042;42.626;23.382;2023-04-15T00:38:34;3.83;;;2.53;;
10005;SDS011;5042;42.626;23.382;2023-04-15T00:41:01;6.23;;;3.00;;
10005;SDS011;5042;42.626;23.382;2023-04-15T00:43:28;3.23;;;2.03;;
10005;SDS011;5042;42.626;23.382;2023-04-15T00:45:57;3.13;;;2.00;;
10005;SDS011;5042;42.626;23.382;2023-04-15T00:48:24;4.40;;;2.13;;
10005;SDS011;5042;42.626;23.382;2023-04-15T00:50:52;3.57;;;2.13;;
10005;SDS011;5042;42.626;23.382;2023-04-15T00:53:19;2.77;;;2.33;;
10005;SDS011;5042;42.626;23.382;2023-04-15T00:55:45;3.00;;;2.50;;
10005;SDS011;5042;42.626;23.382;2023-04-15T00:58:12;3.27;;;2.17;;
10005;SDS011;5042;42.626;23.382;2023-04-15T01:00:40;2.83;;;1.80;;
10005;SDS011;5042;42.626;23.382;2023-04-15T01:03:09;2.50;;;2.30;;
10005;SDS011;5042;42.626;23.382;2023-04-15T01:05:36;4.10;;;2.30;;
10005;SDS011;5042;42.626;23.382;2023-04-15T01:08:04;3.07;;;2.30;;
10005;SDS011;5042;42.626;23.382;2023-04-15T01:10:31;3.67;;;2.23;;
10005;SDS011;5042;42.626;23.382;2023-04-15T01:12:58;3.47;;;2.20;;
10005;SDS011;5042;42.626;23.382;2023-04-15T01:15:25;3.30;;;2.10;;
10005;SDS011;5042;42.626;23.382;2023-04-15T01:17:52;2.63;;;2.17;;
10005;SDS011;5042;42.626;23.382;2023-04-15T01:20:21;2.93;;;1.80;;
10005;SDS011;5042;42.626;23.382;2023-04-15T01:22:48;3.23;;;2.43;;
10005;SDS011;5042;42.626;23.382;2023-04-15T01:25:16;3.40;;;2.60;;
10005;SDS011;5042;42.626;23.382;2023-04-15T01:27:45;5.60;;;2.67;;
10005;SDS011;5042;42.626;23.382;2023-04-15T01:30:12;2.83;;;2.33;;
10005;SDS011;5042;42.626;23.382;2023-04-15T01:32:39;4.57;;;2.67;;
10005;SDS011;5042;42.626;23.382;2023-04-15T01:35:06;3.13;;;2.40;;
10005;SDS011;5042;42.626;23.382;2023-04-15T01:37:34;4.93;;;2.20;;
10005;SDS011;5042;42.626;23.382;2023-04-15T01:40:01;3.23;;;2.60;;
10005;SDS011;5042;42.626;23.382;2023-04-15T01:42:28;2.40;;;2.20;;
10005;SDS011;5042;42.626;23.382;2023-04-15T01:44:58;2.67;;;2.07;;
10005;SDS011;5042;42.626;23.382;2023-04-15T01:47:25;3.60;;;2.13;;
10005;SDS011;5042;42.626;23.382;2023-04-15T01:49:51;2.37;;;1.80;;
10005;SDS011;5042;42.626;23.382;2023-04-15T01:52:18;2.57;;;2.10;;
10005;SDS011;5042;42.626;23.382;2023-04-15T01:54:45;3.53;;;2.40;;
10005;SDS011;5042;42.626;23.382;2023-04-15T01:57:12;3.93;;;1.90;;
10005;SDS011;5042;42.626;23.382;2023-04-15T01:59:39;2.40;;;2.17;;
10005;SDS011;5042;42.626;23.382;2023-04-15T02:02:07;3.00;;;2.10;;
10005;SDS011;5042;42.626;23.382;2023-04-15T02:04:34;2.30;;;2.10;;
10005;SDS011;5042;42.626;23.382;2023-04-15T02:07:01;2.87;;;1.97;;
10005;SDS011;5042;42.626;23.382;2023-04-15T02:09:28;2.60;;;2.00;;
10005;SDS011;5042;42.626;23.382;2023-04-15T02:11:55;2.13;;;1.90;;
10005;SDS011;5042;42.626;23.382;2023-04-15T02:14:21;2.90;;;2.20;;
10005;SDS011;5042;42.626;23.382;2023-04-15T02:16:48;1.80;;;1.70;;
10005;SDS011;5042;42.626;23.382;2023-04-15T02:19:16;2.93;;;1.93;;
10005;SDS011;5042;42.626;23.382;2023-04-15T02:21:43;2.33;;;2.13;;
10005;SDS011;5042;42.626;23.382;2023-04-15T02:24:10;3.13;;;2.40;;
10005;SDS011;5042;42.626;23.382;2023-04-15T02:26:37;2.90;;;2.20;;
10005;SDS011;5042;42.626;23.382;2023-04-15T02:29:03;2.83;;;2.37;;
10005;SDS011;5042;42.626;23.382;2023-04-15T02:31:30;2.97;;;2.20;;
10005;SDS011;5042;42.626;23.382;2023-04-15T02:34:00;2.93;;;2.10;;
10005;SDS011;5042;42.626;23.382;2023-04-15T02:36:29;2.33;;;1.90;;
10005;SDS011;5042;42.626;23.382;2023-04-15T02:38:57;2.43;;;2.10;;
10005;SDS011;5042;42.626;23.382;2023-04-15T02:41:23;2.27;;;2.00;;
10005;SDS011;5042;42.626;23.382;2023-04-15T02:43:52;2.77;;;2.50;;
10005;SDS011;5042;42.626;23.382;2023-04-15T02:46:19;2.50;;;2.27;;
10005;SDS011;5042;42.626;23.382;2023-04-15T02:48:47;3.50;;;2.27;;
10005;SDS011;5042;42.626;23.382;2023-04-15T02:51:14;3.17;;;2.63;;
10005;SDS011;5042;42.626;23.382;2023-04-15T02:53:43;2.67;;;2.47;;
10005;SDS011;5042;42.626;23.382;2023-04-15T02:56:10;3.33;;;2.70;;
10005;SDS011;5042;42.626;23.382;2023-04-15T02:58:39;2.73;;;2.50;;
10005;SDS011;5042;42.626;23.382;2023-04-15T03:01:07;4.73;;;2.77;;
10005;SDS011;5042;42.626;23.382;2023-04-15T03:03:34;3.77;;;2.90;;
10005;SDS011;5042;42.626;23.382;2023-04-15T03:06:01;5.97;;;2.63;;
10005;SDS011;5042;42.626;23.382;2023-04-15T03:08:28;4.37;;;2.43;;
10005;SDS011;5042;42.626;23.382;2023-04-15T03:10:56;1.97;;;1.83;;
10005;SDS011;5042;42.626;23.382;2023-04-15T03:13:24;3.30;;;2.33;;
10005;SDS011;5042;42.626;23.382;2023-04-15T03:15:51;3.10;;;2.47;;
10005;SDS011;5042;42.626;23.382;2023-04-15T03:18:18;2.33;;;2.13;;
10005;SDS011;5042;42.626;23.382;2023-04-15T03:20:45;2.40;;;2.20;;
10005;SDS011;5042;42.626;23.382;2023-04-15T03:23:12;2.93;;;2.40;;
10005;SDS011;5042;42.626;23.382;2023-04-15T03:25:39;3.27;;;2.63;;
10005;SDS011;5042;42.626;23.382;2023-04-15T03:28:07;3.83;;;2.13;;
10005;SDS011;5042;42.626;23.382;2023-04-15T03:30:33;4.33;;;2.40;;
10005;SDS011;5042;42.626;23.382;2023-04-15T03:33:00;2.70;;;2.20;;
10005;SDS011;5042;42.626;23.382;2023-04-15T03:35:27;2.57;;;2.23;;
10005;SDS011;5042;42.626;23.382;2023-04-15T03:37:54;2.73;;;2.20;;
10005;SDS011;5042;42.626;23.382;2023-04-15T03:40:20;2.50;;;2.20;;
10005;SDS011;5042;42.626;23.382;2023-04-15T03:42:47;2.57;;;2.13;;
10005;SDS011;5042;42.626;23.382;2023-04-15T03:45:16;2.80;;;2.40;;
10005;SDS011;5042;42.626;23.382;2023-04-15T03:47:42;2.87;;;2.50;;
10005;SDS011;5042;42.626;23.382;2023-04-15T03:50:09;3.03;;;2.40;;
10005;SDS011;5042;42.626;23.382;2023-04-15T03:52:36;3.13;;;2.50;;
10005;SDS011;5042;42.626;23.382;2023-04-15T03:55:03;3.13;;;2.43;;
10005;SDS011;5042;42.626;23.382;2023-04-15T03:57:30;4.07;;;2.57;;
10005;SDS011;5042;42.626;23.382;2023-04-15T04:00:02;4.17;;;3.00;;
10005;SDS011;5042;42.626;23.382;2023-04-15T04:02:30;3.73;;;3.20;;
10005;SDS011;5042;42.626;23.382;2023-04-15T04:04:57;4.33;;;3.83;;
10005;SDS011;5042;42.626;23.382;2023-04-15T04:10:09;4.90;;;3.70;;
10005;SDS011;5042;42.626;23.382;2023-04-15T04:12:36;5.37;;;3.97;;
10005;SDS011;5042;42.626;23.382;2023-04-15T04:15:03;4.80;;;4.20;;
10005;SDS011;5042;42.626;23.382;2023-04-15T04:17:32;4.37;;;3.73;;
10005;SDS011;5042;42.626;23.382;2023-04-15T04:19:59;5.90;;;4.37;;
10005;SDS011;5042;42.626;23.382;2023-04-15T04:22:25;5.73;;;4.33;;
10005;SDS011;5042;42.626;23.382;2023-04-15T04:24:52;5.43;;;4.57;;
10005;SDS011;5042;42.626;23.382;2023-04-15T04:27:19;6.70;;;4.53;;
10005;SDS011;5042;42.626;23.382;2023-04-15T04:29:46;8.83;;;5.17;;
10005;SDS011;5042;42.626;23.382;2023-04-15T04:32:14;6.50;;;5.33;;
10005;SDS011;5042;42.626;23.382;2023-04-15T04:34:42;7.67;;;5.63;;
10005;SDS011;5042;42.626;23.382;2023-04-15T04:37:08;6.97;;;5.57;;
10005;SDS011;5042;42.626;23.382;2023-04-15T04:39:35;7.23;;;5.43;;
10005;SDS011;5042;42.626;23.382;2023-04-15T04:42:02;6.50;;;4.73;;
10005;SDS011;5042;42.626;23.382;2023-04-15T04:44:29;5.33;;;3.97;;
10005;SDS011;5042;42.626;23.382;2023-04-15T04:46:55;4.73;;;4.23;;
10005;SDS011;5042;42.626;23.382;2023-04-15T04:49:22;6.70;;;5.40;;
10005;SDS011;5042;42.626;23.382;2023-04-15T04:51:51;8.43;;;5.33;;
10005;SDS011;5042;42.626;23.382;2023-04-15T04:54:18;5.67;;;4.40;;
10005;SDS011;5042;42.626;23.382;2023-04-15T04:56:45;7.17;;;5.07;;
10005;SDS011;5042;42.626;23.382;2023-04-15T04:59:12;7.23;;;4.50;;
10005;SDS011;5042;42.626;23.382;2023-04-15T05:01:39;5.50;;;3.90;;
10005;SDS011;5042;42.626;23.382;2023-04-15T05:04:06;4.87;;;4.00;;
10005;SDS011;5042;42.626;23.382;2023-04-15T05:06:32;6.03;;;4.43;;
10005;SDS011;5042;42.626;23.382;2023-04-15T05:09:02;5.50;;;4.43;;
10005;SDS011;5042;42.626;23.382;2023-04-15T05:11:28;4.63;;;4.07;;
10005;SDS011;5042;42.626;23.382;2023-04-15T05:13:55;5.57;;;4.33;;
10005;SDS011;5042;42.626;23.382;2023-04-15T05:16:23;5.77;;;4.40;;
10005;SDS011;5042;42.626;23.382;2023-04-15T05:18:51;6.93;;;4.20;;
10005;SDS011;5042;42.626;23.382;2023-04-15T05:21:17;6.10;;;4.20;;
10005;SDS011;5042;42.626;23.382;2023-04-15T05:23:44;5.00;;;4.00;;
10005;SDS011;5042;42.626;23.382;2023-04-15T05:26:13;6.33;;;4.23;;
10005;SDS011;5042;42.626;23.382;2023-04-15T05:28:39;4.93;;;4.03;;
10005;SDS011;5042;42.626;23.382;2023-04-15T05:31:06;4.73;;;3.90;;
10005;SDS011;5042;42.626;23.382;2023-04-15T05:33:33;6.30;;;3.05;;
10005;SDS011;5042;42.626;23.382;2023-04-15T05:36:00;4.30;;;3.25;;
10005;SDS011;5042;42.626;23.382;2023-04-15T05:38:27;7.63;;;3.92;;
10005;SDS011;5042;42.626;23.382;2023-04-15T05:40:54;4.45;;;2.65;;
10005;SDS011;5042;42.626;23.382;2023-04-15T05:43:22;5.10;;;3.30;;
10005;SDS011;5042;42.626;23.382;2023-04-15T05:45:49;4.25;;;3.00;;
10005;SDS011;5042;42.626;23.382;2023-04-15T05:48:16;4.00;;;2.95;;
10005;SDS011;5042;42.626;23.382;2023-04-15T05:50:43;5.40;;;3.28;;
10005;SDS011;5042;42.626;23.382;2023-04-15T05:53:10;5.55;;;3.00;;
10005;SDS011;5042;42.626;23.382;2023-04-15T05:55:36;2.80;;;2.50;;
10005;SDS011;5042;42.626;23.382;2023-04-15T05:58:03;5.40;;;3.13;;
10005;SDS011;5042;42.626;23.382;2023-04-15T06:00:31;5.07;;;3.17;;
10005;SDS011;5042;42.626;23.382;2023-04-15T06:02:58;3.58;;;2.88;;
10005;SDS011;5042;42.626;23.382;2023-04-15T06:05:25;5.05;;;3.60;;
10005;SDS011;5042;42.626;23.382;2023-04-15T06:07:52;4.72;;;2.83;;
10005;SDS011;5042;42.626;23.382;2023-04-15T06:10:19;2.63;;;2.43;;
10005;SDS011;5042;42.626;23.382;2023-04-15T06:12:45;3.77;;;3.00;;
10005;SDS011;5042;42.626;23.382;2023-04-15T06:15:12;2.70;;;2.43;;
10005;SDS011;5042;42.626;23.382;2023-04-15T06:17:41;2.23;;;1.90;;
10005;SDS011;5042;42.626;23.382;2023-04-15T06:20:08;1.52;;;1.42;;
10005;SDS011;5042;42.626;23.382;2023-04-15T06:22:35;2.60;;;1.80;;
10005;SDS011;5042;42.626;23.382;2023-04-15T06:25:03;2.75;;;1.83;;
10005;SDS011;5042;42.626;23.382;2023-04-15T06:27:32;2.20;;;2.00;;
10005;SDS011;5042;42.626;23.382;2023-04-15T06:29:58;3.08;;;1.90;;
10005;SDS011;5042;42.626;23.382;2023-04-15T06:32:25;2.47;;;1.90;;
10005;SDS011;5042;42.626;23.382;2023-04-15T06:34:53;2.43;;;1.93;;
10005;SDS011;5042;42.626;23.382;2023-04-15T06:37:20;4.28;;;2.50;;
10005;SDS011;5042;42.626;23.382;2023-04-15T06:39:47;3.28;;;2.10;;
10005;SDS011;5042;42.626;23.382;2023-04-15T06:42:14;2.22;;;2.00;;
10005;SDS011;5042;42.626;23.382;2023-04-15T06:44:41;4.03;;;2.20;;
10005;SDS011;5042;42.626;23.382;2023-04-15T06:47:07;3.03;;;2.67;;
10005;SDS011;5042;42.626;23.382;2023-04-15T06:49:34;4.93;;;2.22;;
10005;SDS011;5042;42.626;23.382;2023-04-15T06:52:02;2.55;;;2.35;;
10005;SDS011;5042;42.626;23.382;2023-04-15T06:54:29;3.05;;;2.30;;
10005;SDS011;5042;42.626;23.382;2023-04-15T06:56:56;4.60;;;2.40;;
10005;SDS011;5042;42.626;23.382;2023-04-15T06:59:23;2.78;;;2.47;;
10005;SDS011;5042;42.626;23.382;2023-04-15T07:01:49;4.60;;;2.20;;
10005;SDS011;5042;42.626;23.382;2023-04-15T07:04:16;2.10;;;1.90;;
10005;SDS011;5042;42.626;23.382;2023-04-15T07:06:45;2.58;;;2.00;;
10005;SDS011;5042;42.626;23.382;2023-04-15T07:09:13;2.13;;;1.40;;
10005;SDS011;5042;42.626;23.382;2023-04-15T07:11:39;2.85;;;1.70;;
10005;SDS011;5042;42.626;23.382;2023-04-15T07:14:06;2.30;;;1.70;;
10005;SDS011;5042;42.626;23.382;2023-04-15T07:16:33;1.40;;;1.30;;
10005;SDS011;5042;42.626;23.382;2023-04-15T07:18:59;2.30;;;1.55;;
10005;SDS011;5042;42.626;23.382;2023-04-15T07:21:26;3.00;;;1.90;;
10005;SDS011;5042;42.626;23.382;2023-04-15T07:23:53;4.75;;;2.20;;
10005;SDS011;5042;42.626;23.382;2023-04-15T07:26:21;1.75;;;1.65;;
10005;SDS011;5042;42.626;23.382;2023-04-15T07:28:48;2.95;;;2.00;;
10005;SDS011;5042;42.626;23.382;2023-04-15T07:31:15;2.38;;;1.67;;
10005;SDS011;5042;42.626;23.382;2023-04-15T07:33:42;2.03;;;1.83;;
10005;SDS011;5042;42.626;23.382;2023-04-15T07:36:09;4.03;;;2.28;;
10005;SDS011;5042;42.626;23.382;2023-04-15T07:38:35;2.22;;;2.03;;
10005;SDS011;5042;42.626;23.382;2023-04-15T07:41:02;5.03;;;2.50;;
10005;SDS011;5042;42.626;23.382;2023-04-15T07:43:31;2.58;;;2.38;;
10005;SDS011;5042;42.626;23.382;2023-04-15T07:45:57;3.90;;;2.88;;
10005;SDS011;5042;42.626;23.382;2023-04-15T07:48:24;3.72;;;2.92;;
10005;SDS011;5042;42.626;23.382;2023-04-15T07:50:51;2.42;;;2.22;;
10005;SDS011;5042;42.626;23.382;2023-04-15T07:53:18;3.45;;;2.90;;
10005;SDS011;5042;42.626;23.382;2023-04-15T07:55:45;4.60;;;2.78;;
10005;SDS011;5042;42.626;23.382;2023-04-15T07:58:11;4.35;;;2.67;;
10005;SDS011;5042;42.626;23.382;2023-04-15T08:00:40;3.10;;;2.35;;
10005;SDS011;5042;42.626;23.382;2023-04-15T08:03:06;2.80;;;1.95;;
10005;SDS011;5042;42.626;23.382;2023-04-15T08:05:33;5.25;;;1.90;;
10005;SDS011;5042;42.626;23.382;2023-04-15T08:08:00;2.33;;;1.50;;
10005;SDS011;5042;42.626;23.382;2023-04-15T08:10:27;2.10;;;1.52;;
10005;SDS011;5042;42.626;23.382;2023-04-15T08:12:54;2.22;;;2.00;;
10005;SDS011;5042;42.626;23.382;2023-04-15T08:15:21;1.85;;;1.40;;
10005;SDS011;5042;42.626;23.382;2023-04-15T08:17:49;2.50;;;1.77;;
10005;SDS011;5042;42.626;23.382;2023-04-15T08:20:16;1.77;;;1.60;;
10005;SDS011;5042;42.626;23.382;2023-04-15T08:22:43;1.35;;;1.25;;
10005;SDS011;5042;42.626;23.382;2023-04-15T08:25:16;1.42;;;1.33;;
10005;SDS011;5042;42.626;23.382;2023-04-15T08:27:43;1.42;;;1.05;;
10005;SDS011;5042;42.626;23.382;2023-04-15T08:30:09;2.45;;;1.63;;
10005;SDS011;5042;42.626;23.382;2023-04-15T08:32:37;2.35;;;1.30;;
10005;SDS011;5042;42.626;23.382;2023-04-15T08:35:05;1.60;;;1.50;;
10005;SDS011;5042;42.626;23.382;2023-04-15T08:37:33;2.83;;;1.30;;
10005;SDS011;5042;42.626;23.382;2023-04-15T08:39:59;1.98;;;1.50;;
10005;SDS011;5042;42.626;23.382;2023-04-15T08:42:27;1.65;;;1.55;;
10005;SDS011;5042;42.626;23.382;2023-04-15T08:44:57;1.52;;;1.38;;
10005;SDS011;5042;42.626;23.382;2023-04-15T08:47:25;1.42;;;1.33;;
10005;SDS011;5042;42.626;23.382;2023-04-15T08:49:55;3.42;;;1.52;;
10005;SDS011;5042;42.626;23.382;2023-04-15T08:52:25;1.40;;;1.30;;
10005;SDS011;5042;42.626;23.382;2023-04-15T08:54:51;2.38;;;1.25;;
10005;SDS011;5042;42.626;23.382;2023-04-15T08:57:22;2.15;;;1.10;;
10005;SDS011;5042;42.626;23.382;2023-04-15T08:59:51;1.73;;;1.48;;
10005;SDS011;5042;42.626;23.382;2023-04-15T09:02:18;1.08;;;1.08;;
10005;SDS011;5042;42.626;23.382;2023-04-15T09:04:45;4.43;;;1.10;;
10005;SDS011;5042;42.626;23.382;2023-04-15T09:07:12;1.65;;;1.10;;
10005;SDS011;5042;42.626;23.382;2023-04-15T09:09:40;1.40;;;1.20;;
10005;SDS011;5042;42.626;23.382;2023-04-15T09:12:07;1.10;;;0.95;;
10005;SDS011;5042;42.626;23.382;2023-04-15T09:14:34;1.08;;;1.08;;
10005;SDS011;5042;42.626;23.382;2023-04-15T09:17:02;2.97;;;1.38;;
10005;SDS011;5042;42.626;23.382;2023-04-15T09:19:30;1.17;;;1.00;;
10005;SDS011;5042;42.626;23.382;2023-04-15T09:21:58;1.20;;;1.10;;
10005;SDS011;5042;42.626;23.382;2023-04-15T09:24:27;1.17;;;1.15;;
10005;SDS011;5042;42.626;23.382;2023-04-15T09:27:02;0.90;;;0.90;;
10005;SDS011;5042;42.626;23.382;2023-04-15T09:29:30;0.88;;;0.80;;
10005;SDS011;5042;42.626;23.382;2023-04-15T09:31:57;0.85;;;0.85;;
10005;SDS011;5042;42.626;23.382;2023-04-15T09:34:35;0.80;;;0.80;;
10005;SDS011;5042;42.626;23.382;2023-04-15T09:37:02;0.80;;;0.80;;
10005;SDS011;5042;42.626;23.382;2023-04-15T09:39:37;3.65;;;0.80;;
10005;SDS011;5042;42.626;23.382;2023-04-15T09:42:13;1.58;;;1.00;;
10005;SDS011;5042;42.626;23.382;2023-04-15T09:44:41;2.30;;;1.10;;
10005;SDS011;5042;42.626;23.382;2023-04-15T09:47:08;0.85;;;0.85;;
10005;SDS011;5042;42.626;23.382;2023-04-15T09:49:35;2.70;;;0.80;;
10005;SDS011;5042;42.626;23.382;2023-04-15T09:52:02;0.80;;;0.80;;
10005;SDS011;5042;42.626;23.382;2023-04-15T09:54:36;1.60;;;0.98;;
10005;SDS011;5042;42.626;23.382;2023-04-15T09:57:04;0.93;;;0.93;;
10005;SDS011;5042;42.626;23.382;2023-04-15T09:59:33;1.10;;;1.00;;
10005;SDS011;5042;42.626;23.382;2023-04-15T10:02:01;0.90;;;0.90;;
10005;SDS011;5042;42.626;23.382;2023-04-15T10:04:30;1.17;;;1.00;;
10005;SDS011;5042;42.626;23.382;2023-04-15T10:07:01;0.93;;;0.75;;
10005;SDS011;5042;42.626;23.382;2023-04-15T10:09:30;0.90;;;0.90;;
10005;SDS011;5042;42.626;23.382;2023-04-15T10:11:58;2.08;;;0.90;;
10005;SDS011;5042;42.626;23.382;2023-04-15T10:14:26;1.05;;;0.90;;
10005;SDS011;5042;42.626;23.382;2023-04-15T10:16:59;2.17;;;0.88;;
10005;SDS011;5042;42.626;23.382;2023-04-15T10:19:27;0.90;;;0.90;;
10005;SDS011;5042;42.626;23.382;2023-04-15T10:21:58;1.02;;;1.02;;
10005;SDS011;5042;42.626;23.382;2023-04-15T10:24:25;1.67;;;1.08;;
10005;SDS011;5042;42.626;23.382;2023-04-15T10:26:52;0.90;;;0.80;;
10005;SDS011;5042;42.626;23.382;2023-04-15T10:29:21;2.47;;;1.00;;
10005;SDS011;5042;42.626;23.382;2023-04-15T10:31:50;1.58;;;1.15;;
10005;SDS011;5042;42.626;23.382;2023-04-15T10:34:20;1.13;;;1.08;;
10005;SDS011;5042;42.626;23.382;2023-04-15T10:36:48;0.82;;;0.70;;
10005;SDS011;5042;42.626;23.382;2023-04-15T10:39:37;1.08;;;0.68;;
10005;SDS011;5042;42.626;23.382;2023-04-15T10:42:05;1.80;;;0.85;;
10005;SDS011;5042;42.626;23.382;2023-04-15T10:44:32;2.88;;;1.00;;
10005;SDS011;5042;42.626;23.382;2023-04-15T10:47:03;0.80;;;0.80;;
10005;SDS011;5042;42.626;23.382;2023-04-15T10:49:33;1.00;;;0.70;;
10005;SDS011;5042;42.626;23.382;2023-04-15T10:52:00;0.65;;;0.65;;
10005;SDS011;5042;42.626;23.382;2023-04-15T10:54:31;1.42;;;0.90;;
10005;SDS011;5042;42.626;23.382;2023-04-15T10:57:06;0.70;;;0.70;;
10005;SDS011;5042;42.626;23.382;2023-04-15T10:59:35;1.33;;;1.00;;
10005;SDS011;5042;42.626;23.382;2023-04-15T11:02:03;1.08;;;0.90;;
10005;SDS011;5042;42.626;23.382;2023-04-15T11:07:37;0.80;;;0.63;;
10005;SDS011;5042;42.626;23.382;2023-04-15T11:13:20;0.70;;;0.70;;
10005;SDS011;5042;42.626;23.382;2023-04-15T11:15:50;1.13;;;0.70;;
10005;SDS011;5042;42.626;23.382;2023-04-15T11:18:17;0.77;;;0.70;;
10005;SDS011;5042;42.626;23.382;2023-04-15T11:20:47;0.73;;;0.73;;
10005;SDS011;5042;42.626;23.382;2023-04-15T11:23:16;1.20;;;0.82;;
10005;SDS011;5042;42.626;23.382;2023-04-15T11:25:43;0.60;;;0.60;;
10005;SDS011;5042;42.626;23.382;2023-04-15T11:28:10;0.60;;;0.60;;
10005;SDS011;5042;42.626;23.382;2023-04-15T11:30:38;0.95;;;0.70;;
10005;SDS011;5042;42.626;23.382;2023-04-15T11:33:07;1.27;;;0.70;;
10005;SDS011;5042;42.626;23.382;2023-04-15T11:35:36;0.95;;;0.90;;
10005;SDS011;5042;42.626;23.382;2023-04-15T11:38:07;1.85;;;0.90;;
10005;SDS011;5042;42.626;23.382;2023-04-15T11:40:35;1.95;;;0.73;;
10005;SDS011;5042;42.626;23.382;2023-04-15T11:43:03;0.63;;;0.60;;
10005;SDS011;5042;42.626;23.382;2023-04-15T11:45:31;0.45;;;0.45;;
10005;SDS011;5042;42.626;23.382;2023-04-15T11:48:04;0.98;;;0.73;;
10005;SDS011;5042;42.626;23.382;2023-04-15T11:50:34;0.70;;;0.70;;
10005;SDS011;5042;42.626;23.382;2023-04-15T11:53:02;0.70;;;0.70;;
10005;SDS011;5042;42.626;23.382;2023-04-15T11:55:32;0.70;;;0.70;;
10005;SDS011;5042;42.626;23.382;2023-04-15T11:58:08;0.70;;;0.70;;
10005;SDS011;5042;42.626;23.382;2023-04-15T12:00:36;0.50;;;0.50;;
10005;SDS011;5042;42.626;23.382;2023-04-15T12:03:16;0.85;;;0.70;;
10005;SDS011;5042;42.626;23.382;2023-04-15T12:08:48;0.85;;;0.70;;
10005;SDS011;5042;42.626;23.382;2023-04-15T12:11:20;0.45;;;0.45;;
10005;SDS011;5042;42.626;23.382;2023-04-15T12:13:54;1.58;;;0.80;;
10005;SDS011;5042;42.626;23.382;2023-04-15T12:16:22;1.55;;;0.50;;
10005;SDS011;5042;42.626;23.382;2023-04-15T12:18:49;0.57;;;0.57;;
10005;SDS011;5042;42.626;23.382;2023-04-15T12:21:17;1.23;;;0.43;;
10005;SDS011;5042;42.626;23.382;2023-04-15T12:23:49;0.55;;;0.55;;
10005;SDS011;5042;42.626;23.382;2023-04-15T12:26:17;1.33;;;0.68;;
10005;SDS011;5042;42.626;23.382;2023-04-15T12:28:53;1.25;;;0.30;;
10005;SDS011;5042;42.626;23.382;2023-04-15T12:31:21;0.35;;;0.35;;
10005;SDS011;5042;42.626;23.382;2023-04-15T12:33:48;0.30;;;0.30;;
10005;SDS011;5042;42.626;23.382;2023-04-15T12:36:15;0.90;;;0.60;;
10005;SDS011;5042;42.626;23.382;2023-04-15T12:38:42;1.65;;;0.60;;
10005;SDS011;5042;42.626;23.382;2023-04-15T12:41:09;0.50;;;0.50;;
10005;SDS011;5042;42.626;23.382;2023-04-15T12:43:35;0.63;;;0.50;;
10005;SDS011;5042;42.626;23.382;2023-04-15T12:46:03;0.63;;;0.40;;
10005;SDS011;5042;42.626;23.382;2023-04-15T12:48:31;0.40;;;0.40;;
10005;SDS011;5042;42.626;23.382;2023-04-15T12:50:58;0.73;;;0.32;;
10005;SDS011;5042;42.626;23.382;2023-04-15T12:53:25;0.80;;;0.60;;
10005;SDS011;5042;42.626;23.382;2023-04-15T12:55:52;0.43;;;0.40;;
10005;SDS011;5042;42.626;23.382;2023-04-15T12:58:19;0.80;;;0.80;;
10005;SDS011;5042;42.626;23.382;2023-04-15T13:00:46;0.60;;;0.60;;
10005;SDS011;5042;42.626;23.382;2023-04-15T13:03:15;0.40;;;0.40;;
10005;SDS011;5042;42.626;23.382;2023-04-15T13:05:42;0.45;;;0.30;;
10005;SDS011;5042;42.626;23.382;2023-04-15T13:08:08;0.52;;;0.50;;
10005;SDS011;5042;42.626;23.382;2023-04-15T13:10:35;2.17;;;0.40;;
10005;SDS011;5042;42.626;23.382;2023-04-15T13:13:03;0.65;;;0.40;;
10005;SDS011;5042;42.626;23.382;2023-04-15T13:15:30;0.38;;;0.38;;
10005;SDS011;5042;42.626;23.382;2023-04-15T13:17:57;0.40;;;0.40;;
10005;SDS011;5042;42.626;23.382;2023-04-15T13:20:25;0.40;;;0.30;;
10005;SDS011;5042;42.626;23.382;2023-04-15T13:22:52;1.08;;;0.57;;
10005;SDS011;5042;42.626;23.382;2023-04-15T13:25:19;0.40;;;0.38;;
10005;SDS011;5042;42.626;23.382;2023-04-15T13:27:46;0.90;;;0.47;;
10005;SDS011;5042;42.626;23.382;2023-04-15T13:30:13;0.77;;;0.40;;
10005;SDS011;5042;42.626;23.382;2023-04-15T13:32:39;0.47;;;0.40;;
10005;SDS011;5042;42.626;23.382;2023-04-15T13:35:06;2.30;;;0.50;;
10005;SDS011;5042;42.626;23.382;2023-04-15T13:37:35;0.47;;;0.47;;
10005;SDS011;5042;42.626;23.382;2023-04-15T13:40:03;0.40;;;0.40;;
10005;SDS011;5042;42.626;23.382;2023-04-15T13:42:32;0.52;;;0.30;;
10005;SDS011;5042;42.626;23.382;2023-04-15T13:44:59;0.45;;;0.45;;
10005;SDS011;5042;42.626;23.382;2023-04-15T13:47:26;0.95;;;0.60;;
10005;SDS011;5042;42.626;23.382;2023-04-15T13:49:52;0.40;;;0.40;;
10005;SDS011;5042;42.626;23.382;2023-04-15T13:52:20;3.50;;;0.60;;
10005;SDS011;5042;42.626;23.382;2023-04-15T13:54:49;0.40;;;0.40;;
10005;SDS011;5042;42.626;23.382;2023-04-15T13:57:16;0.47;;;0.47;;
10005;SDS011;5042;42.626;23.382;2023-04-15T13:59:42;0.52;;;0.52;;
10005;SDS011;5042;42.626;23.382;2023-04-15T14:02:09;0.40;;;0.40;;
10005;SDS011;5042;42.626;23.382;2023-04-15T14:04:36;2.25;;;0.60;;
10005;SDS011;5042;42.626;23.382;2023-04-15T14:07:03;0.35;;;0.35;;
10005;SDS011;5042;42.626;23.382;2023-04-15T14:09:30;0.65;;;0.55;;
10005;SDS011;5042;42.626;23.382;2023-04-15T14:11:58;0.85;;;0.85;;
10005;SDS011;5042;42.626;23.382;2023-04-15T14:14:26;1.48;;;0.63;;
10005;SDS011;5042;42.626;23.382;2023-04-15T14:16:53;0.40;;;0.40;;
10005;SDS011;5042;42.626;23.382;2023-04-15T14:19:21;0.35;;;0.30;;
10005;SDS011;5042;42.626;23.382;2023-04-15T14:21:48;0.30;;;0.30;;
10005;SDS011;5042;42.626;23.382;2023-04-15T14:24:14;0.32;;;0.32;;
10005;SDS011;5042;42.626;23.382;2023-04-15T14:26:41;0.43;;;0.32;;
10005;SDS011;5042;42.626;23.382;2023-04-15T14:29:10;0.35;;;0.30;;
10005;SDS011;5042;42.626;23.382;2023-04-15T14:31:37;0.40;;;0.40;;
10005;SDS011;5042;42.626;23.382;2023-04-15T14:34:04;0.50;;;0.50;;
10005;SDS011;5042;42.626;23.382;2023-04-15T14:36:31;0.88;;;0.38;;
10005;SDS011;5042;42.626;23.382;2023-04-15T14:38:58;0.50;;;0.50;;
10005;SDS011;5042;42.626;23.382;2023-04-15T14:41:24;0.28;;;0.28;;
10005;SDS011;5042;42.626;23.382;2023-04-15T14:43:51;0.45;;;0.38;;
10005;SDS011;5042;42.626;23.382;2023-04-15T14:46:19;0.40;;;0.40;;
10005;SDS011;5042;42.626;23.382;2023-04-15T14:48:46;0.50;;;0.50;;
10005;SDS011;5042;42.626;23.382;2023-04-15T14:51:13;0.70;;;0.30;;
10005;SDS011;5042;42.626;23.382;2023-04-15T14:53:40;0.63;;;0.63;;
10005;SDS011;5042;42.626;23.382;2023-04-15T14:56:07;0.88;;;0.73;;
10005;SDS011;5042;42.626;23.382;2023-04-15T14:58:33;1.92;;;0.70;;
10005;SDS011;5042;42.626;23.382;2023-04-15T15:01:00;1.30;;;0.90;;
10005;SDS011;5042;42.626;23.382;2023-04-15T15:03:29;0.90;;;0.43;;